createdAt,value
2023-06-05T00:00:07.969Z,97811.50
2023-06-05T00:02:41.251Z,97816.47
2023-06-05T00:05:10.808Z,97816.88
2023-06-05T00:07:40.029Z,97802.31
2023-06-05T00:10:10.320Z,97809.41
2023-06-05T00:12:39.654Z,97799.81
2023-06-05T00:15:11.327Z,97806.69
2023-06-05T00:17:40.402Z,97798.41
2023-06-05T00:20:11.406Z,97804.09
2023-06-05T00:22:45.643Z,97800.19
2023-06-05T00:25:14.349Z,97803.44
2023-06-05T00:27:43.160Z,97797.94
2023-06-05T00:30:15.056Z,97802.63
2023-06-05T00:32:44.482Z,97803.31
2023-06-05T00:35:13.278Z,97810.88
2023-06-05T00:37:42.024Z,97810.72
2023-06-05T00:40:11.298Z,97809.97
2023-06-05T00:42:39.918Z,97804.91
2023-06-05T00:45:10.320Z,97799.19
2023-06-05T00:47:42.968Z,97805.75
2023-06-05T00:50:13.976Z,97796.88
2023-06-05T00:52:44.575Z,97802.09
2023-06-05T00:55:14.278Z,97805.13
2023-06-05T00:57:46.588Z,97798.47
2023-06-05T01:00:16.838Z,97804.50
2023-06-05T01:02:47.051Z,97807.16
2023-06-05T01:05:16.182Z,97805.22
2023-06-05T01:07:48.904Z,97799.56
2023-06-05T01:10:18.938Z,97801.84
2023-06-05T01:13:00.228Z,97800.00
2023-06-05T01:15:35.053Z,97795.53
2023-06-05T01:18:06.445Z,97795.47
2023-06-05T01:20:35.950Z,97795.69
2023-06-05T01:23:07.000Z,97799.22
2023-06-05T01:25:37.865Z,97800.59
2023-06-05T01:28:16.457Z,97798.06
2023-06-05T01:30:55.034Z,97793.97
2023-06-05T01:33:32.234Z,97795.06
2023-06-05T01:36:06.270Z,97790.22
2023-06-05T01:38:38.530Z,97799.06
2023-06-05T01:41:08.662Z,97785.53
2023-06-05T01:43:38.027Z,97785.34
2023-06-05T01:46:08.981Z,97787.88
2023-06-05T01:48:39.916Z,97782.50
2023-06-05T01:51:09.917Z,97783.81
2023-06-05T01:53:40.491Z,97778.81
2023-06-05T01:56:09.965Z,97773.41
2023-06-05T01:58:39.580Z,97780.78
2023-06-05T02:01:09.366Z,97772.06
2023-06-05T02:03:38.333Z,97773.16
2023-06-05T02:06:08.361Z,97763.28
2023-06-05T02:08:37.050Z,97769.22
2023-06-05T02:11:11.345Z,97773.81
2023-06-05T02:13:41.141Z,97772.09
2023-06-05T02:16:14.377Z,97771.97
2023-06-05T02:18:44.541Z,97765.94
2023-06-05T02:21:15.762Z,97757.84
2023-06-05T02:23:44.919Z,97758.72
2023-06-05T02:26:17.279Z,97759.06
2023-06-05T02:28:46.108Z,97765.47
2023-06-05T02:31:17.653Z,97762.13
2023-06-05T02:33:46.722Z,97764.66
2023-06-05T02:36:16.774Z,97766.75
2023-06-05T02:38:46.566Z,97763.34
2023-06-05T02:41:17.046Z,97768.53
2023-06-05T02:43:45.899Z,97768.09
2023-06-05T02:46:14.755Z,97769.69
2023-06-05T02:48:43.569Z,97769.59
2023-06-05T02:51:12.991Z,97762.63
2023-06-05T02:53:43.564Z,97769.50
2023-06-05T02:56:14.466Z,97773.34
2023-06-05T02:58:46.663Z,97762.31
2023-06-05T03:01:16.259Z,97761.16
2023-06-05T03:03:49.617Z,97758.25
2023-06-05T03:06:20.418Z,97756.88
2023-06-05T03:08:53.384Z,97759.03
2023-06-05T03:11:22.828Z,97759.03
2023-06-05T03:13:53.316Z,97764.59
2023-06-05T03:16:24.355Z,97762.91
2023-06-05T03:18:56.362Z,97751.97
2023-06-05T03:21:25.708Z,97752.56
2023-06-05T03:23:54.704Z,97757.72
2023-06-05T03:26:26.195Z,97749.72
2023-06-05T03:28:56.731Z,97753.78
2023-06-05T03:31:25.562Z,97754.50
2023-06-05T03:33:54.307Z,97757.19
2023-06-05T03:36:24.093Z,97752.06
2023-06-05T03:38:53.597Z,97753.72
2023-06-05T03:41:22.560Z,97753.81
2023-06-05T03:43:51.894Z,97754.94
2023-06-05T03:46:24.820Z,97751.16
2023-06-05T03:48:59.521Z,97754.22
2023-06-05T03:51:31.211Z,97755.84
2023-06-05T03:54:01.769Z,97757.44
2023-06-05T03:56:35.131Z,97766.75
2023-06-05T03:59:19.421Z,97767.44
2023-06-05T04:01:52.967Z,97775.50
2023-06-05T04:04:22.691Z,97772.94
2023-06-05T04:06:56.206Z,97772.47
2023-06-05T04:09:26.852Z,97765.91
2023-06-05T04:11:56.414Z,97773.59
2023-06-05T04:14:25.701Z,97779.75
2023-06-05T04:16:56.989Z,97775.81
2023-06-05T04:19:27.742Z,97773.97
2023-06-05T04:22:00.388Z,97778.94
2023-06-05T04:24:30.506Z,97777.03
2023-06-05T04:27:02.107Z,97784.97
2023-06-05T04:29:33.751Z,97787.91
2023-06-05T04:32:04.703Z,97785.69
2023-06-05T04:34:34.275Z,97781.56
2023-06-05T04:37:04.651Z,97782.59
2023-06-05T04:39:33.556Z,97784.44
2023-06-05T04:42:14.627Z,97779.03
2023-06-05T04:44:46.838Z,97782.88
2023-06-05T04:47:17.040Z,97773.72
2023-06-05T04:49:48.621Z,97775.28
2023-06-05T04:52:18.074Z,97777.44
2023-06-05T04:54:47.550Z,97775.06
2023-06-05T04:57:17.694Z,97767.75
2023-06-05T04:59:46.742Z,97770.06
2023-06-05T05:02:19.059Z,97774.16
2023-06-05T05:04:48.489Z,97769.09
2023-06-05T05:07:17.797Z,97764.63
2023-06-05T05:09:47.503Z,97769.22
2023-06-05T05:12:17.307Z,97771.09
2023-06-05T05:14:46.583Z,97774.44
2023-06-05T05:17:18.194Z,97770.56
2023-06-05T05:19:48.308Z,97766.53
2023-06-05T05:22:17.401Z,97771.47
2023-06-05T05:24:46.528Z,97768.19
2023-06-05T05:27:15.461Z,97766.88
2023-06-05T05:29:44.138Z,97766.91
2023-06-05T05:32:13.238Z,97768.66
2023-06-05T05:34:42.389Z,97776.59
2023-06-05T05:37:12.479Z,97773.72
2023-06-05T05:39:42.213Z,97785.03
2023-06-05T05:42:10.948Z,97774.19
2023-06-05T05:44:43.128Z,97774.75
2023-06-05T05:47:11.870Z,97781.06
2023-06-05T05:49:41.519Z,97771.97
2023-06-05T05:52:13.303Z,97770.19
2023-06-05T05:54:42.359Z,97777.38
2023-06-05T05:57:11.126Z,97783.34
2023-06-05T05:59:43.531Z,97780.13
2023-06-05T06:02:13.631Z,97780.41
2023-06-05T06:04:45.277Z,97770.38
2023-06-05T06:07:15.815Z,97772.47
2023-06-05T06:09:45.947Z,97773.81
2023-06-05T06:12:14.740Z,97773.91
2023-06-05T06:14:43.554Z,97765.34
2023-06-05T06:17:12.931Z,97771.41
2023-06-05T06:19:41.887Z,97773.66
2023-06-05T06:22:13.226Z,97774.19
2023-06-05T06:24:44.784Z,97777.59
2023-06-05T06:29:51.226Z,97763.09
2023-06-05T06:32:20.788Z,97776.69
2023-06-05T06:34:49.548Z,97775.00
2023-06-05T06:37:18.427Z,97775.34
2023-06-05T06:39:49.537Z,97778.94
2023-06-05T06:42:18.372Z,97774.34
2023-06-05T06:44:58.652Z,97774.31
2023-06-05T06:47:27.691Z,97785.97
2023-06-05T06:49:57.838Z,97782.59
2023-06-05T06:52:26.609Z,97787.94
2023-06-05T06:54:57.347Z,97780.53
2023-06-05T06:57:26.043Z,97783.94
2023-06-05T06:59:55.654Z,97775.72
2023-06-05T07:02:27.097Z,97772.41
2023-06-05T07:04:56.072Z,97784.69
2023-06-05T07:07:25.227Z,97778.72
2023-06-05T07:09:54.081Z,97776.47
2023-06-05T07:12:24.240Z,97777.31
2023-06-05T07:14:53.021Z,97773.97
2023-06-05T07:17:22.448Z,97774.94
2023-06-05T07:19:51.933Z,97773.38
2023-06-05T07:22:21.233Z,97773.78
2023-06-05T07:24:50.262Z,97766.25
2023-06-05T07:27:19.384Z,97771.00
2023-06-05T07:29:50.982Z,97778.91
2023-06-05T07:32:21.758Z,97779.69
2023-06-05T07:34:50.535Z,97777.34
2023-06-05T07:37:19.392Z,97773.38
2023-06-05T07:39:51.343Z,97762.72
2023-06-05T07:42:20.075Z,97762.28
2023-06-05T07:44:50.362Z,97763.09
2023-06-05T07:47:19.110Z,97763.50
2023-06-05T07:50:00.216Z,97763.06
2023-06-05T07:52:29.536Z,97763.03
2023-06-05T07:54:58.708Z,97765.31
2023-06-05T07:57:28.553Z,97754.72
2023-06-05T07:59:58.601Z,97758.38
2023-06-05T08:02:27.430Z,97755.78
2023-06-05T08:04:56.459Z,97752.44
2023-06-05T08:07:25.176Z,97751.00
2023-06-05T08:09:54.020Z,97747.25
2023-06-05T08:12:22.698Z,97748.00
2023-06-05T08:14:51.385Z,97743.50
2023-06-05T08:17:21.541Z,97738.69
2023-06-05T08:19:50.584Z,97741.66
2023-06-05T08:22:19.357Z,97741.59
2023-06-05T08:24:49.596Z,97743.41
2023-06-05T08:27:19.564Z,97744.97
2023-06-05T08:29:48.394Z,97747.50
2023-06-05T08:32:18.943Z,97739.06
2023-06-05T08:34:49.112Z,97737.84
2023-06-05T08:37:17.988Z,97732.34
2023-06-05T08:39:48.061Z,97736.13
2023-06-05T08:42:19.509Z,97735.03
2023-06-05T08:45:01.030Z,97736.75
2023-06-05T08:47:32.615Z,97734.28
2023-06-05T08:50:07.736Z,97730.09
2023-06-05T08:52:41.810Z,97726.94
2023-06-05T08:55:12.497Z,97737.25
2023-06-05T08:57:43.219Z,97735.03
2023-06-05T09:00:13.368Z,97730.28
2023-06-05T09:02:47.898Z,97723.97
2023-06-05T09:05:19.463Z,97720.28
2023-06-05T09:07:48.109Z,97723.69
2023-06-05T09:10:29.331Z,97727.97
2023-06-05T09:13:00.643Z,97729.69
2023-06-05T09:15:32.198Z,97730.25
2023-06-05T09:18:09.347Z,97725.78
2023-06-05T09:20:42.065Z,97711.38
2023-06-05T09:23:28.536Z,97725.06
2023-06-05T09:26:00.698Z,97720.47
2023-06-05T09:28:29.475Z,97725.34
2023-06-05T09:31:00.765Z,97717.69
2023-06-05T09:33:31.814Z,97718.84
2023-06-05T09:36:12.068Z,97727.88
2023-06-05T09:38:43.305Z,97725.09
2023-06-05T09:41:15.604Z,97721.50
2023-06-05T09:43:44.444Z,97714.56
2023-06-05T09:46:15.960Z,97712.31
2023-06-05T09:48:54.639Z,97715.41
2023-06-05T09:51:24.689Z,97717.44
2023-06-05T09:53:53.531Z,97709.91
2023-06-05T09:56:24.782Z,97714.78
2023-06-05T09:58:54.746Z,97719.19
2023-06-05T10:01:28.907Z,97714.88
2023-06-05T10:04:01.584Z,97705.75
2023-06-05T10:06:34.716Z,97719.03
2023-06-05T10:09:04.106Z,97702.59
2023-06-05T10:11:33.284Z,97703.13
2023-06-05T10:14:03.545Z,97705.06
2023-06-05T10:16:33.138Z,97715.56
2023-06-05T10:19:03.270Z,97716.22
2023-06-05T10:21:34.863Z,97715.03
2023-06-05T10:24:08.369Z,97708.94
2023-06-05T10:27:19.889Z,97710.50
2023-06-05T10:30:34.364Z,97715.66
2023-06-05T10:33:21.973Z,97705.16
2023-06-05T10:36:02.108Z,97708.00
2023-06-05T10:38:34.866Z,97711.59
2023-06-05T10:41:06.920Z,97707.09
2023-06-05T10:43:38.933Z,97702.53
2023-06-05T10:46:33.724Z,97694.59
2023-06-05T10:49:16.918Z,97701.41
2023-06-05T10:51:47.803Z,97704.47
2023-06-05T10:54:57.194Z,97692.84
2023-06-05T10:57:26.164Z,97689.00
2023-06-05T11:00:12.233Z,97684.22
2023-06-05T11:02:50.122Z,97689.53
2023-06-05T11:05:19.032Z,97691.16
2023-06-05T11:07:48.527Z,97693.34
2023-06-05T11:10:22.612Z,97696.13
2023-06-05T11:13:03.346Z,97697.16
2023-06-05T11:15:55.387Z,97693.22
2023-06-05T11:18:36.485Z,97695.16
2023-06-05T11:21:05.781Z,97689.28
2023-06-05T11:23:35.007Z,97687.28
2023-06-05T11:26:44.412Z,97684.47
2023-06-05T11:29:17.888Z,97679.41
2023-06-05T11:31:47.760Z,97686.09
2023-06-05T11:34:17.649Z,97677.59
2023-06-05T11:36:47.024Z,97687.00
2023-06-05T11:39:16.081Z,97679.97
2023-06-05T11:41:51.464Z,97679.03
2023-06-05T11:44:34.441Z,97684.13
2023-06-05T11:47:03.721Z,97684.06
2023-06-05T11:49:33.023Z,97683.66
2023-06-05T11:52:02.089Z,97680.72
2023-06-05T11:54:35.281Z,97682.22
2023-06-05T11:57:11.774Z,97682.59
2023-06-05T11:59:40.701Z,97676.41
2023-06-05T12:02:10.713Z,97680.13
2023-06-05T12:04:42.827Z,97679.22
2023-06-05T12:07:13.460Z,97685.41
2023-06-05T12:09:42.695Z,97688.47
2023-06-05T12:12:13.279Z,97687.78
2023-06-05T12:14:42.212Z,97678.03
2023-06-05T12:17:15.129Z,97673.53
2023-06-05T12:19:44.056Z,97677.22
2023-06-05T12:22:13.373Z,97682.25
2023-06-05T12:24:43.045Z,97679.44
2023-06-05T12:27:13.301Z,97676.84
2023-06-05T12:29:56.523Z,97685.63
2023-06-05T12:32:27.774Z,97684.63
2023-06-05T12:35:02.553Z,97680.78
2023-06-05T12:37:40.439Z,97690.84
2023-06-05T12:40:12.934Z,97690.22
2023-06-05T12:42:44.915Z,97687.47
2023-06-05T12:45:14.594Z,97681.53
2023-06-05T12:47:45.058Z,97690.28
2023-06-05T12:50:14.775Z,97683.41
2023-06-05T12:52:44.490Z,97693.38
2023-06-05T12:55:13.569Z,97678.78
2023-06-05T12:57:43.609Z,97681.03
2023-06-05T13:00:14.681Z,97678.09
2023-06-05T13:02:46.590Z,97678.53
2023-06-05T13:05:16.608Z,97670.50
2023-06-05T13:07:45.676Z,97679.53
2023-06-05T13:10:14.596Z,97677.31
2023-06-05T13:12:45.640Z,97674.88
2023-06-05T13:15:14.359Z,97673.66
2023-06-05T13:17:44.521Z,97676.63
2023-06-05T13:20:14.062Z,97668.00
2023-06-05T13:22:43.567Z,97677.50
2023-06-05T13:25:13.437Z,97680.56
2023-06-05T13:27:42.157Z,97662.13
2023-06-05T13:30:13.412Z,97655.81
2023-06-05T13:32:42.420Z,97658.31
2023-06-05T13:35:12.081Z,97666.19
2023-06-05T13:37:41.829Z,97666.75
2023-06-05T13:40:13.102Z,97676.84
2023-06-05T13:42:41.960Z,97667.53
2023-06-05T13:45:12.898Z,97662.84
2023-06-05T13:47:41.841Z,97671.03
2023-06-05T13:50:11.613Z,97677.75
2023-06-05T13:52:40.443Z,97674.41
2023-06-05T13:55:10.010Z,97675.09
2023-06-05T13:57:39.025Z,97685.78
2023-06-05T14:00:10.395Z,97672.94
2023-06-05T14:02:40.892Z,97673.78
2023-06-05T14:05:11.833Z,97673.94
2023-06-05T14:07:48.959Z,97682.22
2023-06-05T14:10:20.253Z,97703.88
2023-06-05T14:12:50.046Z,97693.25
2023-06-05T14:15:19.361Z,97683.28
2023-06-05T14:17:52.130Z,97703.00
2023-06-05T14:20:22.607Z,97695.44
2023-06-05T14:22:52.632Z,97696.16
2023-06-05T14:25:21.777Z,97679.44
2023-06-05T14:27:53.516Z,97680.91
2023-06-05T14:30:22.392Z,97686.69
2023-06-05T14:32:52.742Z,97679.75
2023-06-05T14:35:22.081Z,97680.94
2023-06-05T14:37:50.953Z,97684.13
2023-06-05T14:40:20.053Z,97673.69
2023-06-05T14:42:48.841Z,97674.19
2023-06-05T14:45:17.945Z,97679.81
2023-06-05T14:47:48.430Z,97669.88
2023-06-05T14:50:18.970Z,97670.59
2023-06-05T14:52:47.638Z,97665.91
2023-06-05T14:55:16.620Z,97679.03
2023-06-05T14:57:45.509Z,97684.91
2023-06-05T15:00:15.138Z,97691.81
2023-06-05T15:02:44.052Z,97686.06
2023-06-05T15:05:12.928Z,97690.38
2023-06-05T15:07:45.841Z,97693.69
2023-06-05T15:10:16.354Z,97706.00
2023-06-05T15:12:45.500Z,97696.53
2023-06-05T15:17:46.026Z,97701.41
2023-06-05T15:20:14.852Z,97702.38
2023-06-05T15:22:45.073Z,97707.53
2023-06-05T15:25:13.991Z,97703.56
2023-06-05T15:27:43.281Z,97708.50
2023-06-05T15:30:12.504Z,97708.00
2023-06-05T15:32:41.360Z,97713.25
2023-06-05T15:35:11.002Z,97698.94
2023-06-05T15:37:39.767Z,97710.50
2023-06-05T15:40:11.813Z,97706.91
2023-06-05T15:42:40.649Z,97707.31
2023-06-05T15:45:10.627Z,97716.81
2023-06-05T15:47:39.822Z,97711.25
2023-06-05T15:50:10.114Z,97709.63
2023-06-05T15:52:40.896Z,97715.00
2023-06-05T15:55:11.838Z,97722.13
2023-06-05T15:57:42.066Z,97717.47
2023-06-05T16:00:12.245Z,97718.56
2023-06-05T16:02:41.020Z,97713.69
2023-06-05T16:05:10.448Z,97710.16
2023-06-05T16:07:39.298Z,97710.16
2023-06-05T16:10:11.315Z,97705.00
2023-06-05T16:12:40.358Z,97709.94
2023-06-05T16:15:10.763Z,97718.34
2023-06-05T16:17:42.575Z,97715.16
2023-06-05T16:20:12.749Z,97719.19
2023-06-05T16:22:41.597Z,97717.94
2023-06-05T16:25:12.377Z,97718.41
2023-06-05T16:27:41.232Z,97718.72
2023-06-05T16:30:10.831Z,97711.63
2023-06-05T16:32:39.734Z,97699.16
2023-06-05T16:35:09.600Z,97695.34
2023-06-05T16:37:38.243Z,97691.03
2023-06-05T16:40:10.204Z,97691.09
2023-06-05T16:42:40.950Z,97689.56
2023-06-05T16:45:10.837Z,97678.88
2023-06-05T16:47:39.643Z,97685.63
2023-06-05T16:50:09.376Z,97699.38
2023-06-05T16:52:38.366Z,97698.97
2023-06-05T16:55:07.866Z,97696.22
2023-06-05T16:57:36.700Z,97693.84
2023-06-05T17:00:09.455Z,97693.13
2023-06-05T17:02:38.472Z,97685.22
2023-06-05T17:05:08.582Z,97693.84
2023-06-05T17:07:38.662Z,97694.28
2023-06-05T17:10:09.194Z,97702.16
2023-06-05T17:12:37.962Z,97694.28
2023-06-05T17:15:11.833Z,97691.84
2023-06-05T17:17:41.074Z,97687.13
2023-06-05T17:20:10.783Z,97689.88
2023-06-05T17:22:39.679Z,97694.53
2023-06-05T17:25:12.247Z,97696.16
2023-06-05T17:27:41.389Z,97692.59
2023-06-05T17:30:14.607Z,97706.41
2023-06-05T17:32:43.534Z,97704.69
2023-06-05T17:35:12.250Z,97705.50
2023-06-05T17:37:41.406Z,97702.00
2023-06-05T17:40:11.221Z,97712.69
2023-06-05T17:42:40.038Z,97715.91
2023-06-05T17:45:12.574Z,97710.38
2023-06-05T17:47:41.327Z,97707.16
2023-06-05T17:50:11.237Z,97709.84
2023-06-05T17:52:40.012Z,97710.19
2023-06-05T17:55:10.071Z,97711.81
2023-06-05T17:57:38.795Z,97716.41
2023-06-05T18:00:09.857Z,97710.22
2023-06-05T18:02:50.837Z,97718.38
2023-06-05T18:05:20.355Z,97709.47
2023-06-05T18:07:49.188Z,97729.53
2023-06-05T18:10:18.019Z,97728.78
2023-06-05T18:12:46.624Z,97732.34
2023-06-05T18:15:15.429Z,97729.16
2023-06-05T18:17:44.180Z,97735.84
2023-06-05T18:20:14.803Z,97741.50
2023-06-05T18:22:43.433Z,97735.41
2023-06-05T18:25:14.540Z,97737.38
2023-06-05T18:27:43.223Z,97757.53
2023-06-05T18:30:13.165Z,97761.53
2023-06-05T18:32:41.819Z,97755.31
2023-06-05T18:35:12.940Z,97753.41
2023-06-05T18:37:41.825Z,97752.66
2023-06-05T18:40:12.035Z,97759.44
2023-06-05T18:42:40.660Z,97759.03
2023-06-05T18:45:10.971Z,97759.72
2023-06-05T18:47:39.763Z,97752.13
2023-06-05T18:50:09.204Z,97763.47
2023-06-05T18:52:39.485Z,97761.47
2023-06-05T18:55:09.584Z,97756.03
2023-06-05T18:57:39.448Z,97752.72
2023-06-05T19:00:11.457Z,97752.00
2023-06-05T19:02:40.288Z,97746.28
2023-06-05T19:05:10.207Z,97748.56
2023-06-05T19:07:40.991Z,97749.53
2023-06-05T19:10:10.396Z,97747.72
2023-06-05T19:12:39.185Z,97742.47
2023-06-05T19:15:09.401Z,97744.28
2023-06-05T19:17:38.103Z,97744.91
2023-06-05T19:20:08.863Z,97740.06
2023-06-05T19:22:37.530Z,97739.88
2023-06-05T19:25:09.333Z,97741.13
2023-06-05T19:27:40.089Z,97736.09
2023-06-05T19:30:10.644Z,97738.91
2023-06-05T19:32:39.524Z,97742.78
2023-06-05T19:35:09.052Z,97750.94
2023-06-05T19:37:37.705Z,97745.28
2023-06-05T19:40:09.318Z,97742.47
2023-06-05T19:42:37.958Z,97741.09
2023-06-05T19:45:08.127Z,97737.81
2023-06-05T19:47:36.900Z,97742.94
2023-06-05T19:50:07.934Z,97735.00
2023-06-05T19:52:36.777Z,97738.13
2023-06-05T19:55:08.255Z,97734.16
2023-06-05T19:57:37.303Z,97731.13
2023-06-05T20:00:08.067Z,97729.88
2023-06-05T20:02:43.526Z,97732.84
2023-06-05T20:05:12.288Z,97731.78
2023-06-05T20:07:41.023Z,97734.81
2023-06-05T20:10:12.224Z,97720.91
2023-06-05T20:12:40.864Z,97726.66
2023-06-05T20:15:11.714Z,97730.84
2023-06-05T20:17:40.602Z,97731.19
2023-06-05T20:20:10.447Z,97728.13
2023-06-05T20:22:39.132Z,97730.19
2023-06-05T20:25:11.040Z,97727.81
2023-06-05T20:27:39.987Z,97731.63
2023-06-05T20:30:10.087Z,97736.03
2023-06-05T20:32:38.748Z,97733.53
2023-06-05T20:35:09.610Z,97736.69
2023-06-05T20:37:38.760Z,97736.72
2023-06-05T20:40:12.435Z,97742.41
2023-06-05T20:42:41.418Z,97740.03
2023-06-05T20:45:11.592Z,97739.88
2023-06-05T20:47:42.099Z,97742.84
2023-06-05T20:50:12.831Z,97739.78
2023-06-05T20:52:41.497Z,97734.94
2023-06-05T20:55:11.873Z,97749.34
2023-06-05T20:57:40.706Z,97748.38
2023-06-05T21:00:10.986Z,97745.53
2023-06-05T21:02:39.698Z,97744.22
2023-06-05T21:05:09.471Z,97744.63
2023-06-05T21:07:38.367Z,97752.03
2023-06-05T21:10:08.040Z,97752.19
2023-06-05T21:12:38.226Z,97751.03
2023-06-05T21:15:08.416Z,97750.25
2023-06-05T21:17:38.690Z,97753.88
2023-06-05T21:20:09.147Z,97753.66
2023-06-05T21:22:38.109Z,97746.56
2023-06-05T21:25:08.170Z,97746.44
2023-06-05T21:27:38.267Z,97743.38
2023-06-05T21:30:08.986Z,97740.06
2023-06-05T21:32:37.805Z,97737.56
2023-06-05T21:35:07.413Z,97734.75
2023-06-05T21:37:36.050Z,97731.81
2023-06-05T21:40:05.305Z,97728.47
2023-06-05T21:42:33.963Z,97720.59
2023-06-05T21:45:04.249Z,97728.97
2023-06-05T21:47:32.962Z,97725.59
2023-06-05T21:50:01.749Z,97731.59
2023-06-05T21:52:30.638Z,97736.91
2023-06-05T21:54:59.237Z,97723.13
2023-06-05T21:57:27.987Z,97734.00
2023-06-05T21:59:56.835Z,97732.06
2023-06-05T22:02:26.931Z,97731.31
2023-06-05T22:04:55.885Z,97728.38
2023-06-05T22:07:25.445Z,97725.03
2023-06-05T22:09:54.111Z,97718.22
2023-06-05T22:12:25.335Z,97715.97
2023-06-05T22:14:54.313Z,97718.41
2023-06-05T22:17:26.461Z,97718.84
2023-06-05T22:19:58.638Z,97714.94
2023-06-05T22:22:28.075Z,97715.81
2023-06-05T22:24:58.222Z,97718.03
2023-06-05T22:27:27.143Z,97718.75
2023-06-05T22:29:56.574Z,97724.88
2023-06-05T22:32:25.733Z,97710.91
2023-06-05T22:34:55.930Z,97711.22
2023-06-05T22:37:26.396Z,97707.56
2023-06-05T22:39:55.210Z,97699.69
2023-06-05T22:42:24.017Z,97712.31
2023-06-05T22:44:52.849Z,97708.59
2023-06-05T22:47:21.926Z,97709.13
2023-06-05T22:49:53.860Z,97706.19
2023-06-05T22:52:25.681Z,97698.78
2023-06-05T22:54:55.255Z,97700.97
2023-06-05T22:57:24.092Z,97699.34
2023-06-05T22:59:53.280Z,97705.84
2023-06-05T23:02:22.752Z,97700.88
2023-06-05T23:04:52.020Z,97697.78
2023-06-05T23:07:21.574Z,97700.16
2023-06-05T23:09:51.763Z,97693.38
2023-06-05T23:12:22.001Z,97696.59
2023-06-05T23:14:50.711Z,97697.19
2023-06-05T23:17:19.635Z,97702.22
2023-06-05T23:19:48.326Z,97701.31
2023-06-05T23:22:17.359Z,97703.66
2023-06-05T23:24:46.072Z,97700.25
2023-06-05T23:27:16.082Z,97697.19
2023-06-05T23:29:45.331Z,97695.16
2023-06-05T23:32:14.278Z,97690.19
2023-06-05T23:34:43.036Z,97686.25
2023-06-05T23:37:11.678Z,97692.94
2023-06-05T23:39:40.316Z,97685.19
2023-06-05T23:42:10.420Z,97689.88
2023-06-05T23:44:40.532Z,97690.38
2023-06-05T23:47:09.696Z,97680.53
2023-06-05T23:49:38.436Z,97686.59
2023-06-05T23:52:08.532Z,97686.47
2023-06-05T23:54:37.182Z,97677.38
2023-06-05T23:57:06.641Z,97678.34
2023-06-05T23:59:35.456Z,97678.34
